createdAt,value
2023-01-15T00:04:44.225Z,8.60
2023-01-15T00:09:38.410Z,7.60
2023-01-15T00:21:54.645Z,9.30
2023-01-15T00:24:40.186Z,8.90
2023-01-15T00:42:12.178Z,8.00
2023-01-15T00:52:03.511Z,8.90
2023-01-15T01:16:42.056Z,7.70
2023-01-15T01:19:15.092Z,7.90
2023-01-15T01:24:13.219Z,7.50
2023-01-15T01:26:40.213Z,7.80
2023-01-15T01:36:32.011Z,7.70
2023-01-15T01:38:59.985Z,7.70
2023-01-15T01:41:27.616Z,6.60
2023-01-15T01:44:27.937Z,6.80
2023-01-15T01:52:03.099Z,7.70
2023-01-15T01:54:32.878Z,7.60
2023-01-15T01:59:27.470Z,6.90
2023-01-15T02:01:54.662Z,6.40
2023-01-15T02:04:24.011Z,7.60
2023-01-15T02:06:52.038Z,8.30
2023-01-15T02:11:46.296Z,6.60
2023-01-15T02:14:25.350Z,7.90
2023-01-15T02:19:41.451Z,7.60
2023-01-15T02:25:12.424Z,8.90
2023-01-15T02:27:47.481Z,7.70
2023-01-15T02:30:25.387Z,7.60
2023-01-15T02:33:03.368Z,7.70
2023-01-15T02:35:47.235Z,7.60
2023-01-15T02:38:18.728Z,7.50
2023-01-15T02:40:52.732Z,7.50
2023-01-15T02:45:52.788Z,6.60
2023-01-15T02:48:24.345Z,8.30
2023-01-15T02:50:57.403Z,7.40
2023-01-15T02:53:28.508Z,7.40
2023-01-15T02:56:03.236Z,7.50
2023-01-15T02:58:39.006Z,7.90
2023-01-15T03:01:23.000Z,8.40
2023-01-15T03:04:25.804Z,6.50
2023-01-15T03:07:05.079Z,6.10
2023-01-15T03:12:26.926Z,8.50
2023-01-15T03:15:04.457Z,7.30
2023-01-15T03:17:55.373Z,7.20
2023-01-15T03:20:28.266Z,7.30
2023-01-15T03:23:09.108Z,7.30
2023-01-15T03:25:44.025Z,7.40
2023-01-15T03:28:14.263Z,7.40
2023-01-15T03:30:41.725Z,7.40
2023-01-15T03:33:11.635Z,7.40
2023-01-15T03:35:53.446Z,7.40
2023-01-15T03:41:53.754Z,7.20
2023-01-15T03:44:36.131Z,7.20
2023-01-15T03:47:29.924Z,7.30
2023-01-15T03:50:14.634Z,6.00
2023-01-15T03:53:17.812Z,5.90
2023-01-15T03:56:11.616Z,6.40
2023-01-15T03:58:54.053Z,7.20
2023-01-15T04:01:34.211Z,7.20
2023-01-15T04:04:02.533Z,7.10
2023-01-15T04:06:32.382Z,6.00
2023-01-15T04:09:00.321Z,6.80
2023-01-15T04:11:29.181Z,5.70
2023-01-15T04:14:01.612Z,8.10
2023-01-15T04:29:04.598Z,6.60
2023-01-15T04:36:27.852Z,6.10
2023-01-15T04:41:42.908Z,5.80
2023-01-15T04:46:43.236Z,5.70
2023-01-15T04:49:13.167Z,7.00
2023-01-15T04:54:09.831Z,7.00
2023-01-15T04:56:42.225Z,6.20
2023-01-15T04:59:09.397Z,7.20
2023-01-15T05:01:36.752Z,5.80
2023-01-15T05:04:05.807Z,7.10
2023-01-15T05:09:01.505Z,6.90
2023-01-15T05:13:56.144Z,7.80
2023-01-15T05:16:27.452Z,6.90
2023-01-15T05:18:57.307Z,7.00
2023-01-15T05:21:31.777Z,6.10
2023-01-15T05:24:00.657Z,6.90
2023-01-15T05:26:30.475Z,7.00
2023-01-15T05:28:59.106Z,4.40
2023-01-15T05:31:26.886Z,6.80
2023-01-15T05:33:55.334Z,6.90
2023-01-15T05:36:24.945Z,7.50
2023-01-15T05:41:40.174Z,7.10
2023-01-15T05:44:09.729Z,7.40
2023-01-15T05:46:37.970Z,7.00
2023-01-15T05:49:07.494Z,7.00
2023-01-15T05:51:38.711Z,6.90
2023-01-15T05:54:07.420Z,7.00
2023-01-15T05:56:38.195Z,7.00
2023-01-15T05:59:06.021Z,6.90
2023-01-15T06:04:02.175Z,7.00
2023-01-15T06:18:46.807Z,5.60
2023-01-15T06:21:15.074Z,5.90
2023-01-15T06:26:13.061Z,5.90
2023-01-15T06:31:13.052Z,5.90
2023-01-15T06:36:13.071Z,3.90
2023-01-15T06:41:33.881Z,5.80
2023-01-15T06:44:19.506Z,5.10
2023-01-15T06:47:12.518Z,5.80
2023-01-15T06:54:35.023Z,5.70
2023-01-15T07:14:22.578Z,6.60
2023-01-15T07:16:50.364Z,5.60
2023-01-15T07:36:30.573Z,5.70
2023-01-15T07:49:50.847Z,5.80
2023-01-15T07:52:19.882Z,5.70
2023-01-15T07:54:48.882Z,5.80
2023-01-15T07:57:19.611Z,5.60
2023-01-15T08:07:09.744Z,5.70
2023-01-15T08:17:37.939Z,5.70
2023-01-15T08:20:07.093Z,5.70
2023-01-15T08:29:59.724Z,7.10
2023-01-15T08:34:53.970Z,7.40
2023-01-15T08:49:40.690Z,6.10
2023-01-15T08:54:34.919Z,7.90
2023-01-15T08:57:02.083Z,6.70
2023-01-15T09:04:23.786Z,6.90
2023-01-15T09:14:56.824Z,7.40
2023-01-15T09:34:16.010Z,8.30
2023-01-15T09:42:10.582Z,8.40
2023-01-15T09:45:05.225Z,8.10
2023-01-15T09:48:02.223Z,8.00
2023-01-15T09:53:29.680Z,7.20
2023-01-15T09:56:00.041Z,8.90
2023-01-15T09:58:37.396Z,9.40
2023-01-15T10:03:49.633Z,8.50
2023-01-15T10:06:24.541Z,8.50
2023-01-15T10:11:52.723Z,9.00
2023-01-15T10:14:43.855Z,9.10
2023-01-15T10:17:26.032Z,9.70
2023-01-15T10:19:53.780Z,10.00
2023-01-15T10:22:32.581Z,8.80
2023-01-15T10:25:02.471Z,10.10
2023-01-15T10:27:33.484Z,10.20
2023-01-15T10:30:16.212Z,8.80
2023-01-15T10:33:07.101Z,11.40
2023-01-15T10:36:02.958Z,11.30
2023-01-15T10:41:02.652Z,9.60
2023-01-15T10:43:59.770Z,9.50
2023-01-15T10:46:38.024Z,9.20
2023-01-15T10:49:13.489Z,8.80
2023-01-15T10:54:21.750Z,9.10
2023-01-15T10:57:12.164Z,9.70
2023-01-15T10:59:48.096Z,8.70
2023-01-15T11:02:40.721Z,9.10
2023-01-15T11:05:16.977Z,9.20
2023-01-15T11:08:16.569Z,9.70
2023-01-15T11:10:40.599Z,9.60
2023-01-15T11:13:43.997Z,8.50
2023-01-15T11:16:38.941Z,10.40
2023-01-15T11:19:35.775Z,10.10
2023-01-15T11:22:16.871Z,9.80
2023-01-15T11:24:55.354Z,9.30
2023-01-15T11:27:33.685Z,9.00
2023-01-15T11:30:03.141Z,8.80
2023-01-15T11:32:36.072Z,8.70
2023-01-15T11:35:15.017Z,7.90
2023-01-15T11:37:42.005Z,9.90
2023-01-15T11:40:20.599Z,8.50
2023-01-15T11:43:07.261Z,8.70
2023-01-15T11:45:52.660Z,9.80
2023-01-15T11:48:41.283Z,9.00
2023-01-15T11:53:46.617Z,10.30
2023-01-15T11:56:19.360Z,11.80
2023-01-15T11:58:50.302Z,10.70
2023-01-15T12:01:31.743Z,10.50
2023-01-15T12:04:01.386Z,10.00
2023-01-15T12:06:31.527Z,9.80
2023-01-15T12:09:13.376Z,9.70
2023-01-15T12:12:08.003Z,9.30
2023-01-15T12:14:39.157Z,9.00
2023-01-15T12:17:48.063Z,8.80
2023-01-15T12:20:29.812Z,9.70
2023-01-15T12:23:30.510Z,8.10
2023-01-15T12:26:06.158Z,8.90
2023-01-15T12:28:38.541Z,7.40
2023-01-15T12:31:17.034Z,7.40
2023-01-15T12:34:08.438Z,7.70
2023-01-15T12:36:59.211Z,8.90
2023-01-15T12:39:45.580Z,8.00
2023-01-15T12:42:36.680Z,7.90
2023-01-15T12:45:12.650Z,7.70
2023-01-15T12:50:45.359Z,7.50
2023-01-15T12:53:27.478Z,7.30
2023-01-15T12:56:01.744Z,7.80
2023-01-15T12:58:42.151Z,7.70
2023-01-15T13:01:36.264Z,7.50
2023-01-15T13:04:25.627Z,7.70
2023-01-15T13:06:58.010Z,7.70
2023-01-15T13:09:45.674Z,7.70
2023-01-15T13:12:16.901Z,9.20
2023-01-15T13:17:41.699Z,8.10
2023-01-15T13:20:17.174Z,9.10
2023-01-15T13:23:07.648Z,7.80
2023-01-15T13:25:57.608Z,7.80
2023-01-15T13:28:57.451Z,7.60
2023-01-15T13:31:36.504Z,8.40
2023-01-15T13:34:14.233Z,7.60
2023-01-15T13:36:46.078Z,7.60
2023-01-15T13:39:22.752Z,7.70
2023-01-15T13:42:11.673Z,7.50
2023-01-15T13:44:47.434Z,7.60
2023-01-15T13:47:22.027Z,7.60
2023-01-15T13:49:54.433Z,7.80
2023-01-15T13:52:33.663Z,7.80
2023-01-15T13:55:07.948Z,7.70
2023-01-15T13:57:41.003Z,7.10
2023-01-15T14:00:27.822Z,8.10
2023-01-15T14:02:57.920Z,7.30
2023-01-15T14:05:29.813Z,8.10
2023-01-15T14:10:35.777Z,7.90
2023-01-15T14:13:42.970Z,6.90
2023-01-15T14:16:23.287Z,7.80
2023-01-15T14:19:17.380Z,8.40
2023-01-15T14:22:19.779Z,7.40
2023-01-15T14:25:21.911Z,9.00
2023-01-15T14:28:14.147Z,9.10
2023-01-15T14:30:54.496Z,9.60
2023-01-15T14:33:54.018Z,8.60
2023-01-15T14:36:38.271Z,8.50
2023-01-15T14:39:18.332Z,8.20
2023-01-15T14:44:33.514Z,8.10
2023-01-15T14:47:03.875Z,8.10
2023-01-15T14:49:42.692Z,8.00
2023-01-15T14:54:39.466Z,9.10
2023-01-15T14:57:09.644Z,7.90
2023-01-15T15:02:18.198Z,7.70
2023-01-15T15:04:51.159Z,7.70
2023-01-15T15:07:25.419Z,7.30
2023-01-15T15:10:09.442Z,7.70
2023-01-15T15:12:47.738Z,7.60
2023-01-15T15:15:43.848Z,7.50
2023-01-15T15:18:24.196Z,7.90
2023-01-15T15:21:08.102Z,8.30
2023-01-15T15:23:42.292Z,7.50
2023-01-15T15:26:26.124Z,7.50
2023-01-15T15:28:57.270Z,7.30
2023-01-15T15:33:56.959Z,8.50
2023-01-15T15:36:28.134Z,7.00
2023-01-15T15:38:58.043Z,7.10
2023-01-15T15:41:47.812Z,7.10
2023-01-15T15:44:39.684Z,7.10
2023-01-15T15:47:44.722Z,7.20
2023-01-15T15:50:32.476Z,7.00
2023-01-15T15:55:41.785Z,7.60
2023-01-15T15:58:22.794Z,6.80
2023-01-15T16:03:20.977Z,6.60
2023-01-15T16:05:59.933Z,6.40
2023-01-15T16:08:28.442Z,6.50
2023-01-15T16:10:58.278Z,6.40
2023-01-15T16:13:34.293Z,7.10
2023-01-15T16:16:03.277Z,6.40
2023-01-15T16:18:54.639Z,5.20
2023-01-15T16:21:28.339Z,3.80
2023-01-15T16:24:04.983Z,6.40
2023-01-15T16:26:44.271Z,6.40
2023-01-15T16:29:21.538Z,6.30
2023-01-15T16:34:21.743Z,6.50
2023-01-15T16:39:40.714Z,7.70
2023-01-15T16:42:27.057Z,6.60
2023-01-15T16:44:57.049Z,6.60
2023-01-15T16:52:53.457Z,5.90
2023-01-15T16:55:42.149Z,6.60
2023-01-15T16:58:17.926Z,6.50
2023-01-15T17:00:49.541Z,7.80
2023-01-15T17:03:27.512Z,6.50
2023-01-15T17:06:00.549Z,6.50
2023-01-15T17:08:31.987Z,6.20
2023-01-15T17:11:03.314Z,6.50
2023-01-15T17:13:40.704Z,6.50
2023-01-15T17:16:13.461Z,7.50
2023-01-15T17:21:23.396Z,6.60
2023-01-15T17:23:51.101Z,6.50
2023-01-15T17:26:27.159Z,6.50
2023-01-15T17:31:29.616Z,5.80
2023-01-15T17:34:01.472Z,5.80
2023-01-15T17:36:29.677Z,6.40
2023-01-15T17:38:56.880Z,5.40
2023-01-15T17:51:15.323Z,6.20
2023-01-15T18:02:23.137Z,6.20
2023-01-15T18:05:12.509Z,6.20
2023-01-15T18:07:42.843Z,5.90
2023-01-15T18:10:18.247Z,6.20
2023-01-15T18:20:08.123Z,4.80
2023-01-15T18:32:30.569Z,6.90
2023-01-15T18:50:19.487Z,4.80
2023-01-15T18:55:27.465Z,5.80
2023-01-15T19:00:24.208Z,5.70
2023-01-15T19:02:52.031Z,6.70
2023-01-15T19:10:16.073Z,6.70
2023-01-15T19:15:39.789Z,5.40
2023-01-15T19:23:20.639Z,5.30
2023-01-15T19:25:49.650Z,5.20
2023-01-15T19:28:20.170Z,5.10
2023-01-15T19:31:06.842Z,4.90
2023-01-15T19:33:34.518Z,5.10
2023-01-15T19:38:28.944Z,4.40
2023-01-15T19:49:37.608Z,4.90
2023-01-15T20:02:18.946Z,3.50
2023-01-15T20:04:46.870Z,4.80
2023-01-15T20:12:29.085Z,4.80
2023-01-15T20:17:24.440Z,8.20
2023-01-15T20:30:06.313Z,4.70
2023-01-15T20:32:33.354Z,5.20
2023-01-15T20:45:11.251Z,3.70
2023-01-15T20:47:58.003Z,4.70
2023-01-15T20:50:27.931Z,4.80
2023-01-15T20:52:56.427Z,5.90
2023-01-15T20:55:24.818Z,4.70
2023-01-15T21:00:20.851Z,4.70
2023-01-15T21:07:43.152Z,3.70
2023-01-15T21:10:12.417Z,3.80
2023-01-15T21:22:30.802Z,6.20
2023-01-15T21:24:58.329Z,4.80
2023-01-15T21:37:15.983Z,5.30
2023-01-15T21:42:40.168Z,5.30
2023-01-15T21:45:08.313Z,5.50
2023-01-15T21:47:36.930Z,5.40
2023-01-15T21:50:05.545Z,5.40
2023-01-15T21:52:33.661Z,5.40
2023-01-15T21:57:31.290Z,4.30
2023-01-15T22:02:27.780Z,6.90
2023-01-15T22:22:10.887Z,5.00
2023-01-15T22:24:40.335Z,5.70
2023-01-15T22:27:12.086Z,5.80
2023-01-15T22:29:40.784Z,5.80
2023-01-15T22:32:09.587Z,5.70
2023-01-15T22:37:04.155Z,7.10
2023-01-15T22:39:31.344Z,6.40
2023-01-15T22:44:45.088Z,5.20
2023-01-15T22:54:34.249Z,5.90
2023-01-15T23:04:24.444Z,6.00
2023-01-15T23:06:52.512Z,6.00
2023-01-15T23:09:20.978Z,7.30
2023-01-15T23:11:48.411Z,6.00
2023-01-15T23:16:43.347Z,5.50
2023-01-15T23:19:10.455Z,5.60
2023-01-15T23:21:39.166Z,6.10
2023-01-15T23:33:56.262Z,6.30
2023-01-15T23:41:40.771Z,6.00
2023-01-15T23:44:35.389Z,6.00
2023-01-15T23:56:56.726Z,6.00
